createdAt,value
2023-02-04T00:00:14.565Z,-0.29
2023-02-04T00:02:42.709Z,-0.27
2023-02-04T00:05:11.064Z,-0.28
2023-02-04T00:07:41.258Z,-0.31
2023-02-04T00:10:13.900Z,-0.36
2023-02-04T00:12:41.867Z,-0.40
2023-02-04T00:15:10.814Z,-0.41
2023-02-04T00:17:39.730Z,-0.40
2023-02-04T00:20:08.224Z,-0.36
2023-02-04T00:22:38.133Z,-0.30
2023-02-04T00:25:06.657Z,-0.28
2023-02-04T00:27:35.245Z,-0.31
2023-02-04T00:30:04.898Z,-0.37
2023-02-04T00:32:33.013Z,-0.43
2023-02-04T00:35:04.778Z,-0.47
2023-02-04T00:37:33.404Z,-0.50
2023-02-04T00:40:01.432Z,-0.54
2023-02-04T00:42:29.796Z,-0.57
2023-02-04T00:44:59.820Z,-0.58
2023-02-04T00:47:27.813Z,-0.59
2023-02-04T00:49:57.776Z,-0.59
2023-02-04T00:52:26.655Z,-0.62
2023-02-04T00:54:54.698Z,-0.67
2023-02-04T00:57:23.526Z,-0.76
2023-02-04T00:59:51.749Z,-0.81
2023-02-04T01:02:20.032Z,-0.81
2023-02-04T01:04:49.543Z,-0.79
2023-02-04T01:07:19.765Z,-0.76
2023-02-04T01:09:47.852Z,-0.73
2023-02-04T01:12:16.032Z,-0.72
2023-02-04T01:14:44.643Z,-0.74
2023-02-04T01:17:13.702Z,-0.78
2023-02-04T01:19:41.956Z,-0.80
2023-02-04T01:22:10.863Z,-0.78
2023-02-04T01:24:39.053Z,-0.73
2023-02-04T01:27:25.957Z,-0.68
2023-02-04T01:29:54.673Z,-0.63
2023-02-04T01:32:22.819Z,-0.60
2023-02-04T01:34:51.152Z,-0.60
2023-02-04T01:37:20.011Z,-0.63
2023-02-04T01:39:48.066Z,-0.66
2023-02-04T01:42:16.163Z,-0.70
2023-02-04T01:44:44.278Z,-0.74
2023-02-04T01:47:12.421Z,-0.76
2023-02-04T01:49:41.676Z,-0.73
2023-02-04T01:52:10.330Z,-0.73
2023-02-04T01:54:39.604Z,-0.72
2023-02-04T01:57:10.635Z,-0.74
2023-02-04T01:59:42.505Z,-0.77
2023-02-04T02:02:40.141Z,-0.79
2023-02-04T02:05:10.493Z,-0.80
2023-02-04T02:07:40.411Z,-0.76
2023-02-04T02:10:10.109Z,-0.72
2023-02-04T02:12:38.712Z,-0.68
2023-02-04T02:15:10.053Z,-0.67
2023-02-04T02:17:38.691Z,-0.68
2023-02-04T02:20:09.604Z,-0.69
2023-02-04T02:22:59.186Z,-0.73
2023-02-04T02:25:27.395Z,-0.77
2023-02-04T02:27:56.333Z,-0.81
2023-02-04T02:30:24.419Z,-0.82
2023-02-04T02:32:52.532Z,-0.82
2023-02-04T02:35:21.696Z,-0.80
2023-02-04T02:37:51.030Z,-0.76
2023-02-04T02:40:19.270Z,-0.77
2023-02-04T02:42:49.364Z,-0.80
2023-02-04T02:45:25.363Z,-0.84
2023-02-04T02:47:53.458Z,-0.88
2023-02-04T02:50:23.519Z,-0.89
2023-02-04T02:52:53.324Z,-0.90
2023-02-04T02:55:23.968Z,-0.88
2023-02-04T02:57:52.493Z,-0.84
2023-02-04T03:00:25.732Z,-0.81
2023-02-04T03:02:57.755Z,-0.79
2023-02-04T03:05:25.997Z,-0.81
2023-02-04T03:07:54.914Z,-0.89
2023-02-04T03:10:23.218Z,-0.92
2023-02-04T03:12:51.813Z,-0.92
2023-02-04T03:15:20.017Z,-0.88
2023-02-04T03:17:48.023Z,-0.81
2023-02-04T03:20:16.324Z,-0.74
2023-02-04T03:22:44.563Z,-0.73
2023-02-04T03:25:13.316Z,-0.73
2023-02-04T03:27:42.241Z,-0.75
2023-02-04T03:30:11.340Z,-0.79
2023-02-04T03:32:41.866Z,-0.79
2023-02-04T03:35:10.203Z,-0.77
2023-02-04T03:37:39.403Z,-0.73
2023-02-04T03:40:08.590Z,-0.73
2023-02-04T03:42:38.741Z,-0.70
2023-02-04T03:45:07.218Z,-0.68
2023-02-04T03:47:36.354Z,-0.70
2023-02-04T03:50:05.329Z,-0.73
2023-02-04T03:52:34.255Z,-0.76
2023-02-04T03:55:02.310Z,-0.78
2023-02-04T03:57:30.542Z,-0.82
2023-02-04T03:59:58.575Z,-0.83
2023-02-04T04:02:27.185Z,-0.82
2023-02-04T04:04:55.433Z,-0.82
2023-02-04T04:07:24.109Z,-0.83
2023-02-04T04:09:52.546Z,-0.84
2023-02-04T04:12:20.556Z,-0.86
2023-02-04T04:14:49.270Z,-0.88
2023-02-04T04:17:17.432Z,-0.90
2023-02-04T04:19:45.513Z,-0.88
2023-02-04T04:22:13.904Z,-0.85
2023-02-04T04:24:42.702Z,-0.81
2023-02-04T04:27:10.805Z,-0.72
2023-02-04T04:29:38.737Z,-0.64
2023-02-04T04:32:07.346Z,-0.60
2023-02-04T04:34:36.038Z,-0.57
2023-02-04T04:37:04.236Z,-0.55
2023-02-04T04:39:32.174Z,-0.54
2023-02-04T04:42:00.101Z,-0.55
2023-02-04T04:44:28.212Z,-0.60
2023-02-04T04:46:56.474Z,-0.65
2023-02-04T04:49:24.648Z,-0.64
2023-02-04T04:51:52.671Z,-0.63
2023-02-04T04:54:21.080Z,-0.64
2023-02-04T04:56:49.089Z,-0.67
2023-02-04T04:59:17.342Z,-0.67
2023-02-04T05:01:45.427Z,-0.72
2023-02-04T05:04:14.691Z,-0.74
2023-02-04T05:06:43.016Z,-0.74
2023-02-04T05:09:10.979Z,-0.75
2023-02-04T05:11:39.051Z,-0.79
2023-02-04T05:14:07.302Z,-0.80
2023-02-04T05:16:36.213Z,-0.79
2023-02-04T05:19:05.138Z,-0.77
2023-02-04T05:21:33.904Z,-0.73
2023-02-04T05:24:02.240Z,-0.71
2023-02-04T05:26:31.389Z,-0.70
2023-02-04T05:29:02.847Z,-0.69
2023-02-04T05:31:33.214Z,-0.71
2023-02-04T05:34:02.055Z,-0.76
2023-02-04T05:36:30.197Z,-0.79
2023-02-04T05:38:58.776Z,-0.79
2023-02-04T05:41:27.027Z,-0.77
2023-02-04T05:43:55.140Z,-0.73
2023-02-04T05:46:23.061Z,-0.68
2023-02-04T05:48:51.062Z,-0.65
2023-02-04T05:51:18.998Z,-0.67
2023-02-04T05:53:47.308Z,-0.69
2023-02-04T05:56:15.371Z,-0.72
2023-02-04T05:58:45.990Z,-0.74
2023-02-04T06:01:14.044Z,-0.74
2023-02-04T06:03:42.069Z,-0.71
2023-02-04T06:06:10.669Z,-0.68
2023-02-04T06:08:39.093Z,-0.66
2023-02-04T06:11:07.296Z,-0.67
2023-02-04T06:13:35.713Z,-0.72
2023-02-04T06:16:05.082Z,-0.77
2023-02-04T06:18:33.618Z,-0.80
2023-02-04T06:21:06.885Z,-0.79
2023-02-04T06:23:34.950Z,-0.79
2023-02-04T06:26:03.206Z,-0.78
2023-02-04T06:28:31.905Z,-0.75
2023-02-04T06:30:59.956Z,-0.74
2023-02-04T06:33:28.119Z,-0.75
2023-02-04T06:35:56.073Z,-0.76
2023-02-04T06:38:26.823Z,-0.77
2023-02-04T06:40:55.427Z,-0.76
2023-02-04T06:43:25.493Z,-0.75
2023-02-04T06:45:55.092Z,-0.85
2023-02-04T06:48:23.133Z,-0.85
2023-02-04T06:50:52.791Z,-0.82
2023-02-04T06:53:20.991Z,-0.81
2023-02-04T06:55:49.523Z,-0.77
2023-02-04T06:58:17.492Z,-0.75
2023-02-04T07:00:46.021Z,-0.74
2023-02-04T07:03:14.739Z,-0.73
2023-02-04T07:05:51.253Z,-0.71
2023-02-04T07:08:19.805Z,-0.66
2023-02-04T07:10:48.406Z,-0.61
2023-02-04T07:13:20.488Z,-0.56
2023-02-04T07:15:51.243Z,-0.55
2023-02-04T07:18:20.436Z,-0.57
2023-02-04T07:20:52.896Z,-0.61
2023-02-04T07:23:21.077Z,-0.61
2023-02-04T07:25:49.198Z,-0.59
2023-02-04T07:28:17.293Z,-0.56
2023-02-04T07:30:45.513Z,-0.55
2023-02-04T07:33:13.771Z,-0.54
2023-02-04T07:35:42.392Z,-0.54
2023-02-04T07:38:10.696Z,-0.54
2023-02-04T07:40:39.513Z,-0.54
2023-02-04T07:43:08.393Z,-0.60
2023-02-04T07:45:36.621Z,-0.64
2023-02-04T07:48:04.999Z,-0.62
2023-02-04T07:50:34.428Z,-0.60
2023-02-04T07:53:02.933Z,-0.64
2023-02-04T07:55:31.044Z,-0.67
2023-02-04T07:57:59.225Z,-0.67
2023-02-04T08:00:27.272Z,-0.69
2023-02-04T08:02:55.355Z,-0.71
2023-02-04T08:05:23.424Z,-0.72
2023-02-04T08:10:01.150Z,-0.70
2023-02-04T08:12:29.460Z,-0.72
2023-02-04T08:14:57.837Z,-0.68
2023-02-04T08:17:25.886Z,-0.65
2023-02-04T08:19:53.927Z,-0.62
2023-02-04T08:22:22.854Z,-0.63
2023-02-04T08:24:51.225Z,-0.66
2023-02-04T08:27:19.265Z,-0.72
2023-02-04T08:29:47.708Z,-0.77
2023-02-04T08:32:17.345Z,-0.80
2023-02-04T08:34:45.280Z,-0.81
2023-02-04T08:37:15.467Z,-0.82
2023-02-04T08:39:46.339Z,-0.83
2023-02-04T08:42:15.753Z,-0.90
2023-02-04T08:44:43.884Z,-0.96
2023-02-04T08:47:11.996Z,-0.93
2023-02-04T08:49:40.325Z,-0.87
2023-02-04T08:52:11.781Z,-0.80
2023-02-04T08:54:55.016Z,-0.76
2023-02-04T08:57:25.500Z,-0.74
2023-02-04T08:59:53.829Z,-0.68
2023-02-04T09:02:21.848Z,-0.67
2023-02-04T09:04:50.116Z,-0.65
2023-02-04T09:07:18.361Z,-0.66
2023-02-04T09:09:46.787Z,-0.72
2023-02-04T09:12:19.716Z,-0.81
2023-02-04T09:14:48.380Z,-0.79
2023-02-04T09:17:16.416Z,-0.73
2023-02-04T09:19:44.959Z,-0.72
2023-02-04T09:22:15.574Z,-0.72
2023-02-04T09:24:43.908Z,-0.73
2023-02-04T09:27:12.385Z,-0.78
2023-02-04T09:29:40.560Z,-0.82
2023-02-04T09:32:08.712Z,-0.75
2023-02-04T09:34:37.092Z,-0.69
2023-02-04T09:37:05.503Z,-0.62
2023-02-04T09:39:33.877Z,-0.59
2023-02-04T09:42:01.895Z,-0.61
2023-02-04T09:44:30.577Z,-0.64
2023-02-04T09:47:00.185Z,-0.65
2023-02-04T09:49:28.609Z,-0.64
2023-02-04T12:20:15.724Z,-1.33
2023-02-04T12:22:44.430Z,-1.33
2023-02-04T12:25:17.056Z,-1.30
2023-02-04T12:27:46.133Z,-1.26
2023-02-04T12:30:14.552Z,-1.20
2023-02-04T12:32:42.519Z,-1.09
2023-02-04T12:35:13.003Z,-0.99
2023-02-04T12:37:41.296Z,-0.95
2023-02-04T12:40:15.935Z,-0.95
2023-02-04T12:42:44.773Z,-0.95
2023-02-04T12:45:14.733Z,-0.95
2023-02-04T12:47:44.006Z,-0.97
2023-02-04T12:50:22.800Z,-0.97
2023-02-04T12:52:55.788Z,-1.01
2023-02-04T12:55:26.771Z,-1.04
2023-02-04T12:57:56.301Z,-1.06
2023-02-04T13:00:24.640Z,-1.16
2023-02-04T13:02:54.940Z,-1.25
2023-02-04T13:05:23.318Z,-1.27
2023-02-04T13:07:51.350Z,-1.30
2023-02-04T13:10:20.189Z,-1.33
2023-02-04T13:12:51.418Z,-1.34
2023-02-04T13:15:20.270Z,-1.36
2023-02-04T13:17:49.923Z,-1.43
2023-02-04T13:20:18.125Z,-1.46
2023-02-04T13:22:46.620Z,-1.46
2023-02-04T13:25:14.938Z,-1.46
2023-02-04T13:27:43.473Z,-1.43
2023-02-04T13:30:14.114Z,-1.38
2023-02-04T13:32:44.199Z,-1.37
2023-02-04T13:35:12.195Z,-1.41
2023-02-04T13:37:40.341Z,-1.42
2023-02-04T13:40:09.568Z,-1.44
2023-02-04T13:42:39.414Z,-1.49
2023-02-04T13:45:12.402Z,-1.52
2023-02-04T13:47:40.592Z,-1.53
2023-02-04T13:50:08.942Z,-1.55
2023-02-04T13:52:37.529Z,-1.56
2023-02-04T13:55:06.313Z,-1.58
2023-02-04T13:57:34.526Z,-1.63
2023-02-04T14:00:03.329Z,-1.66
2023-02-04T14:02:43.152Z,-1.68
2023-02-04T14:05:12.926Z,-1.69
2023-02-04T14:07:42.104Z,-1.69
2023-02-04T14:10:12.233Z,-1.67
2023-02-04T14:12:42.839Z,-1.71
2023-02-04T14:15:13.219Z,-1.74
2023-02-04T14:17:45.473Z,-1.75
2023-02-04T14:20:18.620Z,-1.76
2023-02-04T14:22:47.338Z,-1.78
2023-02-04T14:25:16.832Z,-1.85
2023-02-04T14:27:45.058Z,-1.89
2023-02-04T14:30:17.629Z,-1.92
2023-02-04T14:32:45.852Z,-1.93
2023-02-04T14:35:14.006Z,-1.99
2023-02-04T14:37:42.007Z,-2.03
2023-02-04T14:40:12.529Z,-2.06
2023-02-04T14:42:41.240Z,-2.15
2023-02-04T14:45:10.258Z,-2.18
2023-02-04T14:47:40.498Z,-2.27
2023-02-04T14:50:14.373Z,-2.33
2023-02-04T14:52:44.624Z,-2.34
2023-02-04T14:55:14.566Z,-2.38
2023-02-04T14:57:42.756Z,-2.37
2023-02-04T15:00:11.756Z,-2.36
2023-02-04T15:02:40.641Z,-2.32
2023-02-04T15:05:12.463Z,-2.30
2023-02-04T15:07:41.953Z,-2.31
2023-02-04T15:10:13.204Z,-2.32
2023-02-04T15:12:44.824Z,-2.31
2023-02-04T15:15:12.963Z,-2.33
2023-02-04T15:17:42.409Z,-2.35
2023-02-04T15:20:11.428Z,-2.36
2023-02-04T15:22:40.199Z,-2.33
2023-02-04T15:25:08.693Z,-2.31
2023-02-04T15:27:40.211Z,-2.30
2023-02-04T15:30:09.121Z,-2.29
2023-02-04T15:32:38.772Z,-2.30
2023-02-04T15:43:24.729Z,-2.33
2023-02-04T15:45:53.508Z,-2.39
2023-02-04T15:48:24.137Z,-2.39
2023-02-04T15:50:55.062Z,-2.38
2023-02-04T15:53:23.179Z,-2.36
2023-02-04T15:55:54.223Z,-2.34
2023-02-04T15:58:22.586Z,-2.33
2023-02-04T16:00:50.751Z,-2.31
2023-02-04T16:03:21.981Z,-2.33
2023-02-04T16:05:52.246Z,-2.37
2023-02-04T16:08:21.531Z,-2.40
2023-02-04T16:10:54.172Z,-2.42
2023-02-04T16:21:55.393Z,-2.35
2023-02-04T16:24:23.506Z,-2.35
2023-02-04T16:26:56.973Z,-2.35
2023-02-04T16:29:26.431Z,-2.37
2023-02-04T16:31:53.572Z,-2.38
2023-02-04T16:34:20.695Z,-2.39
2023-02-04T16:36:49.325Z,-2.40
2023-02-04T16:39:16.254Z,-2.44
2023-02-04T16:41:43.404Z,-2.49
2023-02-04T16:44:19.125Z,-2.50
2023-02-04T16:46:45.908Z,-2.48
2023-02-04T16:49:13.423Z,-2.46
2023-02-04T16:51:43.038Z,-2.45
2023-02-04T16:54:10.477Z,-2.44
2023-02-04T16:56:38.883Z,-2.45
2023-02-04T16:59:06.649Z,-2.46
2023-02-04T17:01:35.245Z,-2.47
2023-02-04T17:04:06.382Z,-2.50
2023-02-04T17:06:37.492Z,-2.56
2023-02-04T17:09:04.708Z,-2.61
2023-02-04T17:11:33.699Z,-2.65
2023-02-04T17:14:02.419Z,-2.67
2023-02-04T17:16:30.309Z,-2.66
2023-02-04T17:18:57.023Z,-2.63
2023-02-04T17:21:25.875Z,-2.61
2023-02-04T17:23:53.025Z,-2.60
2023-02-04T17:26:24.445Z,-2.61
2023-02-04T17:28:51.302Z,-2.63
2023-02-04T17:31:18.430Z,-2.66
2023-02-04T17:33:47.227Z,-2.68
2023-02-04T17:36:14.726Z,-2.72
2023-02-04T17:38:41.678Z,-2.75
2023-02-04T17:41:10.852Z,-2.78
2023-02-04T17:43:38.061Z,-2.79
2023-02-04T17:46:05.179Z,-2.78
2023-02-04T17:48:33.587Z,-2.77
2023-02-04T19:48:35.387Z,-3.81
2023-02-04T19:51:21.440Z,-3.83
2023-02-04T19:53:55.453Z,-3.80
2023-02-04T19:56:44.688Z,-3.76
2023-02-04T19:59:34.392Z,-3.71
2023-02-04T20:02:16.408Z,-3.64
2023-02-04T20:04:46.437Z,-3.60
2023-02-04T20:07:24.853Z,-3.58
2023-02-04T20:10:21.648Z,-3.57
2023-02-04T20:12:52.448Z,-3.59
2023-02-04T20:15:23.886Z,-3.61
2023-02-04T20:17:52.697Z,-3.63
2023-02-04T20:20:33.134Z,-3.63
2023-02-04T20:23:03.892Z,-3.60
2023-02-04T20:25:46.540Z,-3.59
2023-02-04T20:28:17.423Z,-3.59
2023-02-04T20:30:48.705Z,-3.61
2023-02-04T20:33:28.905Z,-3.63
2023-02-04T20:36:21.111Z,-3.66
2023-02-04T20:39:20.123Z,-3.70
2023-02-04T20:41:48.407Z,-3.71
2023-02-04T20:44:30.207Z,-3.69
2023-02-04T20:47:20.108Z,-3.66
2023-02-04T20:49:56.529Z,-3.67
2023-02-04T20:52:55.852Z,-3.72
2023-02-04T20:55:36.936Z,-3.75
2023-02-04T20:58:09.001Z,-3.75
2023-02-04T21:00:41.093Z,-3.73
2023-02-04T21:03:38.130Z,-3.71
2023-02-04T21:06:31.485Z,-3.70
2023-02-04T21:09:07.998Z,-3.71
2023-02-04T21:11:43.025Z,-3.76
2023-02-04T21:14:12.629Z,-3.80
2023-02-04T21:16:40.894Z,-3.81
2023-02-04T21:19:13.118Z,-3.81
2023-02-04T21:21:43.920Z,-3.80
2023-02-04T21:24:14.041Z,-3.78
2023-02-04T21:26:44.466Z,-3.76
2023-02-04T21:29:19.146Z,-3.76
2023-02-04T21:32:15.088Z,-3.80
2023-02-04T21:35:27.898Z,-3.86
2023-02-04T21:38:07.052Z,-3.88
2023-02-04T21:40:59.557Z,-3.88
2023-02-04T21:43:36.643Z,-3.86
2023-02-04T21:46:10.895Z,-3.84
2023-02-04T21:48:41.278Z,-3.83
2023-02-04T21:51:09.695Z,-3.85
2023-02-04T21:53:39.233Z,-3.89
2023-02-04T21:56:14.666Z,-3.93
2023-02-04T21:58:44.145Z,-3.97
2023-02-04T22:01:25.885Z,-3.99
2023-02-04T22:03:53.965Z,-4.00
2023-02-04T22:06:22.085Z,-3.99
2023-02-04T22:08:51.028Z,-3.99
2023-02-04T22:11:19.510Z,-4.00
2023-02-04T22:13:48.089Z,-4.03
2023-02-04T22:16:17.251Z,-4.07
2023-02-04T22:18:45.898Z,-4.10
2023-02-04T22:21:14.296Z,-4.12
2023-02-04T22:23:42.764Z,-4.12
2023-02-04T22:26:17.575Z,-4.11
2023-02-04T22:28:45.703Z,-4.11
2023-02-04T22:31:16.145Z,-4.13
2023-02-04T22:33:44.544Z,-4.15
2023-02-04T22:36:13.022Z,-4.17
2023-02-04T22:38:42.924Z,-4.18
2023-02-04T22:41:17.068Z,-4.21
2023-02-04T22:43:45.263Z,-4.24
2023-02-04T22:46:13.330Z,-4.26
2023-02-04T22:48:41.854Z,-4.25
2023-02-04T22:51:12.880Z,-4.23
2023-02-04T22:53:41.238Z,-4.22
2023-02-04T22:56:11.354Z,-4.21
2023-02-04T22:58:39.429Z,-4.23
2023-02-04T23:01:08.315Z,-4.25
2023-02-04T23:03:38.441Z,-4.27
2023-02-04T23:06:06.516Z,-4.28
2023-02-04T23:08:34.950Z,-4.27
2023-02-04T23:11:13.028Z,-4.25
2023-02-04T23:13:41.108Z,-4.24
2023-02-04T23:16:10.112Z,-4.25
2023-02-04T23:18:38.497Z,-4.27
2023-02-04T23:21:10.289Z,-4.29
2023-02-04T23:23:38.661Z,-4.29
2023-02-04T23:26:08.074Z,-4.27
2023-02-04T23:28:36.736Z,-4.25
2023-02-04T23:31:06.204Z,-4.23
2023-02-04T23:33:34.422Z,-4.21
2023-02-04T23:36:03.015Z,-4.20
2023-02-04T23:38:32.116Z,-4.21
2023-02-04T23:41:00.377Z,-4.22
2023-02-04T23:43:29.284Z,-4.24
2023-02-04T23:45:57.789Z,-4.24
2023-02-04T23:48:26.129Z,-4.22
2023-02-04T23:50:57.174Z,-4.18
2023-02-04T23:53:25.394Z,-4.14
2023-02-04T23:55:53.622Z,-4.11
2023-02-04T23:58:21.967Z,-4.08
